createdAt,value
2022-12-26T00:01:40.176Z,8.12
2022-12-26T00:04:52.206Z,8.14
2022-12-26T00:07:56.220Z,8.15
2022-12-26T00:10:59.204Z,8.14
2022-12-26T00:14:11.514Z,8.16
2022-12-26T00:17:14.307Z,8.17
2022-12-26T00:20:17.154Z,8.19
2022-12-26T00:23:20.106Z,8.22
2022-12-26T00:26:24.739Z,8.25
2022-12-26T00:29:27.645Z,8.25
2022-12-26T00:32:30.459Z,8.23
2022-12-26T00:35:33.280Z,8.25
2022-12-26T00:38:37.668Z,8.26
2022-12-26T00:41:40.441Z,8.22
2022-12-26T00:44:43.233Z,8.18
2022-12-26T00:47:46.093Z,8.15
2022-12-26T00:50:48.917Z,8.18
2022-12-26T00:53:51.693Z,8.21
2022-12-26T00:56:54.531Z,8.23
2022-12-26T00:59:57.404Z,8.25
2022-12-26T01:03:00.404Z,8.28
2022-12-26T01:06:04.382Z,8.34
2022-12-26T01:09:07.226Z,8.33
2022-12-26T01:12:10.004Z,8.34
2022-12-26T01:15:12.816Z,8.34
2022-12-26T01:18:15.632Z,8.34
2022-12-26T01:21:18.432Z,8.34
2022-12-26T01:24:21.265Z,8.33
2022-12-26T01:27:26.031Z,8.36
2022-12-26T01:30:28.997Z,8.39
2022-12-26T01:33:32.615Z,8.41
2022-12-26T01:36:35.506Z,8.41
2022-12-26T01:39:38.456Z,8.44
2022-12-26T01:42:42.149Z,8.46
2022-12-26T01:45:50.857Z,8.47
2022-12-26T01:48:56.563Z,8.50
2022-12-26T01:52:06.455Z,8.54
2022-12-26T01:55:14.585Z,8.55
2022-12-26T01:58:25.039Z,8.56
2022-12-26T02:01:31.932Z,8.52
2022-12-26T02:04:57.564Z,8.49
2022-12-26T02:08:07.845Z,8.47
2022-12-26T02:11:24.200Z,8.49
2022-12-26T02:14:27.271Z,8.49
2022-12-26T02:17:30.848Z,8.52
2022-12-26T02:20:46.088Z,8.53
2022-12-26T02:24:07.338Z,8.51
2022-12-26T02:27:53.391Z,8.52
2022-12-26T02:31:21.711Z,8.47
2022-12-26T02:34:36.045Z,8.44
2022-12-26T02:38:12.984Z,8.41
2022-12-26T02:41:37.782Z,8.38
2022-12-26T02:45:07.302Z,8.32
2022-12-26T02:48:35.204Z,8.26
2022-12-26T02:52:35.131Z,8.23
2022-12-26T02:56:00.440Z,8.18
2022-12-26T02:59:57.295Z,8.15
2022-12-26T03:03:24.306Z,8.12
2022-12-26T03:06:50.054Z,8.09
2022-12-26T03:10:13.296Z,8.07
2022-12-26T03:13:23.355Z,8.08
2022-12-26T03:16:46.188Z,8.08
2022-12-26T03:20:01.053Z,8.04
2022-12-26T03:23:10.057Z,8.06
2022-12-26T03:26:35.697Z,8.03
2022-12-26T03:29:57.232Z,8.01
2022-12-26T03:33:00.176Z,8.01
2022-12-26T03:36:04.820Z,7.99
2022-12-26T03:39:46.350Z,7.97
2022-12-26T03:43:33.261Z,7.97
2022-12-26T03:47:32.599Z,7.98
2022-12-26T03:51:00.703Z,7.99
2022-12-26T03:54:29.433Z,7.99
2022-12-26T03:57:59.974Z,7.98
2022-12-26T04:01:29.226Z,8.00
2022-12-26T04:04:53.846Z,8.01
2022-12-26T04:08:19.752Z,8.01
2022-12-26T04:11:41.828Z,8.02
2022-12-26T04:15:18.956Z,8.06
2022-12-26T04:18:47.473Z,8.06
2022-12-26T04:22:13.401Z,8.04
2022-12-26T04:25:53.820Z,8.02
2022-12-26T04:29:15.849Z,8.01
2022-12-26T04:32:48.687Z,8.00
2022-12-26T04:36:18.029Z,7.98
2022-12-26T04:39:45.850Z,7.97
2022-12-26T04:43:47.588Z,7.93
2022-12-26T04:46:34.570Z,7.92
2022-12-26T04:50:03.789Z,7.89
2022-12-26T04:53:06.666Z,7.88
2022-12-26T04:56:11.133Z,7.86
2022-12-26T04:59:15.269Z,7.84
2022-12-26T05:02:36.755Z,7.82
2022-12-26T05:06:01.930Z,7.77
2022-12-26T05:09:23.642Z,7.74
2022-12-26T05:12:26.469Z,7.73
2022-12-26T05:15:49.224Z,7.70
2022-12-26T05:19:11.683Z,7.64
2022-12-26T05:22:33.503Z,7.64
2022-12-26T05:25:58.845Z,7.61
2022-12-26T05:29:03.901Z,7.58
2022-12-26T05:32:06.826Z,7.56
2022-12-26T05:35:09.774Z,7.52
2022-12-26T05:38:12.717Z,7.51
2022-12-26T05:41:16.708Z,7.47
2022-12-26T05:44:19.532Z,7.41
2022-12-26T05:47:22.309Z,7.37
2022-12-26T05:50:25.143Z,7.36
2022-12-26T05:53:29.385Z,7.36
2022-12-26T05:56:32.358Z,7.36
2022-12-26T05:59:35.144Z,7.33
2022-12-26T06:02:38.185Z,7.30
2022-12-26T06:05:41.209Z,7.25
2022-12-26T06:08:44.588Z,7.24
2022-12-26T06:11:49.088Z,7.25
2022-12-26T06:14:52.088Z,7.27
2022-12-26T06:17:56.771Z,7.27
2022-12-26T06:20:59.607Z,7.29
2022-12-26T06:24:07.704Z,7.31
2022-12-26T06:27:15.707Z,7.33
2022-12-26T06:31:39.356Z,7.36
2022-12-26T06:34:52.337Z,7.37
2022-12-26T06:37:55.159Z,7.35
2022-12-26T06:40:58.043Z,7.37
2022-12-26T06:44:01.066Z,7.37
2022-12-26T06:47:03.927Z,7.39
2022-12-26T06:50:12.302Z,7.42
2022-12-26T06:53:21.979Z,7.47
2022-12-26T06:57:10.916Z,7.55
2022-12-26T07:00:32.642Z,7.70
2022-12-26T07:03:35.951Z,7.85
2022-12-26T07:06:38.942Z,7.95
2022-12-26T07:09:41.841Z,8.03
2022-12-26T07:12:44.830Z,8.12
2022-12-26T07:15:47.754Z,8.23
2022-12-26T07:18:58.143Z,8.34
2022-12-26T07:22:00.969Z,8.45
2022-12-26T07:25:04.158Z,8.58
2022-12-26T07:28:07.060Z,8.67
2022-12-26T07:31:10.026Z,8.77
2022-12-26T07:34:13.312Z,8.83
2022-12-26T07:37:16.256Z,8.93
2022-12-26T07:40:19.093Z,9.03
2022-12-26T07:43:23.063Z,9.11
2022-12-26T07:46:26.111Z,9.15
2022-12-26T07:49:29.052Z,9.19
2022-12-26T07:52:31.898Z,9.23
2022-12-26T07:55:34.783Z,9.24
2022-12-26T07:58:37.695Z,9.27
2022-12-26T08:01:40.763Z,9.30
2022-12-26T08:04:44.142Z,9.34
2022-12-26T08:07:48.704Z,9.37
2022-12-26T08:11:02.789Z,9.40
2022-12-26T08:14:05.629Z,9.41
2022-12-26T08:17:09.290Z,9.38
2022-12-26T08:20:12.246Z,9.38
2022-12-26T08:23:15.156Z,9.38
2022-12-26T08:26:22.636Z,9.40
2022-12-26T08:29:25.773Z,9.42
2022-12-26T08:32:28.696Z,9.41
2022-12-26T08:35:31.539Z,9.41
2022-12-26T08:38:34.412Z,9.42
2022-12-26T08:41:37.235Z,9.44
2022-12-26T08:44:40.099Z,9.50
2022-12-26T08:47:42.890Z,9.62
2022-12-26T08:50:45.757Z,9.70
2022-12-26T08:53:50.398Z,9.76
2022-12-26T08:56:53.299Z,9.81
2022-12-26T08:59:56.191Z,9.84
2022-12-26T09:02:59.281Z,9.86
2022-12-26T09:06:06.270Z,9.89
2022-12-26T09:09:13.893Z,9.93
2022-12-26T09:12:16.691Z,9.93
2022-12-26T09:15:19.529Z,9.94
2022-12-26T09:18:22.313Z,9.93
2022-12-26T09:21:25.609Z,9.91
2022-12-26T09:24:28.557Z,9.84
2022-12-26T09:27:31.368Z,9.78
2022-12-26T09:30:34.154Z,9.75
2022-12-26T09:33:39.835Z,9.74
2022-12-26T09:36:42.634Z,9.76
2022-12-26T09:39:45.446Z,9.81
2022-12-26T09:43:23.667Z,9.84
2022-12-26T09:46:36.878Z,9.86
2022-12-26T09:49:48.870Z,9.88
2022-12-26T09:52:57.059Z,9.87
2022-12-26T09:56:08.658Z,9.87
2022-12-26T09:59:20.186Z,9.92
2022-12-26T10:02:24.699Z,9.95
2022-12-26T10:05:49.004Z,9.97
2022-12-26T10:09:20.088Z,10.03
2022-12-26T10:12:54.262Z,10.10
2022-12-26T10:16:19.098Z,10.16
2022-12-26T10:19:34.188Z,10.22
2022-12-26T10:23:19.579Z,10.21
2022-12-26T10:26:29.320Z,10.22
2022-12-26T10:29:42.536Z,10.25
2022-12-26T10:32:49.571Z,10.26
2022-12-26T10:35:52.589Z,10.27
2022-12-26T10:38:59.246Z,10.29
2022-12-26T10:42:14.596Z,10.31
2022-12-26T10:45:20.353Z,10.29
2022-12-26T10:48:27.281Z,10.34
2022-12-26T10:51:31.182Z,10.42
2022-12-26T10:54:34.544Z,10.55
2022-12-26T10:57:37.944Z,10.65
2022-12-26T11:00:40.833Z,10.70
2022-12-26T11:03:55.342Z,10.74
2022-12-26T11:06:59.316Z,10.74
2022-12-26T11:10:03.379Z,10.75
2022-12-26T11:13:20.522Z,10.75
2022-12-26T11:16:27.724Z,10.81
2022-12-26T11:19:42.871Z,10.92
2022-12-26T11:22:47.049Z,10.98
2022-12-26T11:25:58.974Z,11.02
2022-12-26T11:29:11.696Z,10.96
2022-12-26T11:32:20.479Z,10.92
2022-12-26T11:35:27.613Z,10.93
2022-12-26T11:38:44.143Z,10.93
2022-12-26T11:41:49.369Z,10.88
2022-12-26T11:44:55.434Z,10.84
2022-12-26T11:48:01.192Z,10.83
2022-12-26T11:51:04.305Z,10.83
2022-12-26T11:54:20.070Z,10.83
2022-12-26T11:57:30.529Z,10.86
2022-12-26T12:00:59.635Z,10.96
2022-12-26T12:04:05.647Z,11.09
2022-12-26T12:07:32.385Z,11.18
2022-12-26T12:11:01.854Z,11.30
2022-12-26T12:14:14.786Z,11.49
2022-12-26T12:18:02.920Z,11.61
2022-12-26T12:21:13.146Z,11.65
2022-12-26T12:24:39.003Z,11.65
2022-12-26T12:28:13.236Z,11.68
2022-12-26T12:31:31.603Z,11.73
2022-12-26T12:39:43.885Z,11.76
2022-12-26T12:43:19.004Z,11.82
2022-12-26T12:46:34.127Z,11.83
2022-12-26T12:49:52.854Z,11.85
2022-12-26T12:53:08.024Z,11.93
2022-12-26T12:56:25.663Z,11.94
2022-12-26T12:59:50.751Z,11.91
2022-12-26T13:03:25.883Z,11.86
2022-12-26T13:06:36.854Z,11.79
2022-12-26T13:09:48.151Z,11.76
2022-12-26T13:12:53.476Z,11.73
2022-12-26T13:16:05.392Z,11.68
2022-12-26T13:19:24.640Z,11.66
2022-12-26T13:23:00.703Z,11.67
2022-12-26T13:26:15.498Z,11.61
2022-12-26T13:29:32.192Z,11.53
2022-12-26T13:32:35.189Z,11.52
2022-12-26T13:36:01.483Z,11.47
2022-12-26T13:39:04.349Z,11.44
2022-12-26T13:42:36.579Z,11.37
2022-12-26T13:45:42.665Z,11.27
2022-12-26T13:48:45.450Z,11.22
2022-12-26T13:51:50.878Z,11.21
2022-12-26T13:54:53.695Z,11.14
2022-12-26T13:58:19.337Z,11.08
2022-12-26T14:01:26.099Z,11.08
2022-12-26T14:04:51.961Z,11.08
2022-12-26T14:08:04.928Z,11.05
2022-12-26T14:11:45.843Z,10.98
2022-12-26T14:14:58.829Z,10.86
2022-12-26T14:18:05.036Z,10.75
2022-12-26T14:21:21.089Z,10.66
2022-12-26T14:24:50.992Z,10.57
2022-12-26T14:27:53.681Z,10.49
2022-12-26T14:31:13.925Z,10.37
2022-12-26T14:34:19.884Z,10.34
2022-12-26T14:37:30.444Z,10.33
2022-12-26T14:40:37.057Z,10.30
2022-12-26T14:43:41.695Z,10.29
2022-12-26T14:46:44.438Z,10.25
2022-12-26T14:49:47.760Z,10.24
2022-12-26T14:52:50.778Z,10.24
2022-12-26T14:55:58.411Z,10.19
2022-12-26T14:59:33.241Z,10.15
2022-12-26T15:02:38.952Z,10.12
2022-12-26T15:05:47.192Z,10.09
2022-12-26T15:09:11.538Z,10.07
2022-12-26T15:12:38.585Z,10.04
2022-12-26T15:15:50.450Z,9.99
2022-12-26T15:19:12.129Z,9.96
2022-12-26T15:22:34.208Z,9.87
2022-12-26T15:26:03.317Z,9.76
2022-12-26T15:29:09.131Z,9.67
2022-12-26T15:32:28.123Z,9.59
2022-12-26T15:35:44.086Z,9.51
2022-12-26T15:39:21.779Z,9.43
2022-12-26T15:42:46.174Z,9.38
2022-12-26T15:46:00.695Z,9.31
2022-12-26T15:49:46.484Z,9.28
2022-12-26T15:53:10.049Z,9.23
2022-12-26T15:56:53.392Z,9.18
2022-12-26T16:00:35.926Z,9.12
2022-12-26T16:03:49.697Z,9.02
2022-12-26T16:07:12.179Z,8.92
2022-12-26T16:10:38.286Z,8.81
2022-12-26T16:13:56.828Z,8.71
2022-12-26T16:17:15.154Z,8.63
2022-12-26T16:20:50.680Z,8.57
2022-12-26T16:23:59.667Z,8.51
2022-12-26T16:27:06.821Z,8.44
2022-12-26T16:30:23.258Z,8.40
2022-12-26T16:33:29.290Z,8.36
2022-12-26T16:36:33.412Z,8.32
2022-12-26T16:39:36.267Z,8.30
2022-12-26T16:42:43.119Z,8.30
2022-12-26T16:45:49.349Z,8.25
2022-12-26T16:49:00.686Z,8.19
2022-12-26T16:52:04.063Z,8.15
2022-12-26T16:55:34.591Z,8.12
2022-12-26T16:58:38.385Z,8.07
2022-12-26T17:01:41.771Z,8.01
2022-12-26T17:05:00.745Z,7.97
2022-12-26T17:08:04.616Z,7.95
2022-12-26T17:11:07.700Z,7.92
2022-12-26T17:14:20.277Z,7.89
2022-12-26T17:17:23.141Z,7.86
2022-12-26T17:20:33.749Z,7.87
2022-12-26T17:23:43.106Z,7.89
2022-12-26T17:26:51.888Z,7.88
2022-12-26T17:30:19.664Z,7.86
2022-12-26T17:33:29.144Z,7.86
2022-12-26T17:37:08.715Z,7.88
2022-12-26T17:40:06.190Z,7.92
2022-12-26T17:43:12.090Z,7.94
2022-12-26T17:46:16.900Z,7.97
2022-12-26T17:49:19.752Z,8.02
2022-12-26T17:52:29.164Z,8.07
2022-12-26T17:55:32.258Z,8.13
2022-12-26T17:58:35.177Z,8.16
2022-12-26T18:01:38.370Z,8.21
2022-12-26T18:04:41.826Z,8.26
2022-12-26T18:07:46.326Z,8.31
2022-12-26T18:10:49.188Z,8.34
2022-12-26T18:13:51.988Z,8.35
2022-12-26T18:16:54.902Z,8.34
2022-12-26T18:19:57.867Z,8.33
2022-12-26T18:23:01.227Z,8.36
2022-12-26T18:26:08.419Z,8.36
2022-12-26T18:29:11.674Z,8.26
2022-12-26T18:32:27.093Z,8.27
2022-12-26T18:35:30.129Z,8.24
2022-12-26T18:38:32.970Z,8.25
2022-12-26T18:41:36.311Z,8.27
2022-12-26T18:44:40.079Z,8.21
2022-12-26T18:47:42.995Z,8.17
2022-12-26T18:50:46.995Z,8.13
2022-12-26T18:53:50.263Z,8.10
2022-12-26T18:56:53.074Z,8.06
2022-12-26T18:59:55.936Z,8.01
2022-12-26T19:02:59.198Z,8.00
2022-12-26T19:06:02.199Z,8.00
2022-12-26T19:09:07.023Z,8.03
2022-12-26T19:12:09.926Z,8.03
2022-12-26T19:15:14.495Z,8.06
2022-12-26T19:18:17.289Z,8.06
2022-12-26T19:21:20.163Z,8.06
2022-12-26T19:24:23.427Z,8.02
2022-12-26T19:27:26.346Z,7.99
2022-12-26T19:30:32.354Z,8.00
2022-12-26T19:33:40.059Z,8.00
2022-12-26T19:36:43.014Z,8.00
2022-12-26T19:39:45.964Z,7.98
2022-12-26T19:42:48.919Z,7.98
2022-12-26T19:45:59.657Z,7.95
2022-12-26T19:49:02.850Z,7.93
2022-12-26T19:52:05.725Z,7.90
2022-12-26T19:55:12.033Z,7.88
2022-12-26T19:58:15.031Z,7.86
2022-12-26T20:01:23.981Z,7.87
2022-12-26T20:04:27.009Z,7.93
2022-12-26T20:07:30.227Z,8.05
2022-12-26T20:10:33.924Z,8.15
2022-12-26T20:13:36.746Z,8.24
2022-12-26T20:17:04.980Z,8.28
2022-12-26T20:20:03.610Z,8.28
2022-12-26T20:23:06.755Z,8.32
2022-12-26T20:26:13.308Z,8.36
2022-12-26T20:29:16.571Z,8.37
2022-12-26T20:32:19.436Z,8.37
2022-12-26T20:35:22.226Z,8.38
2022-12-26T20:38:25.058Z,8.39
2022-12-26T20:41:29.018Z,8.41
2022-12-26T20:44:31.872Z,8.42
2022-12-26T20:47:35.053Z,8.44
2022-12-26T20:50:38.020Z,8.44
2022-12-26T20:53:41.479Z,8.42
2022-12-26T20:56:44.965Z,8.41
2022-12-26T20:59:47.924Z,8.40
2022-12-26T21:02:53.456Z,8.41
2022-12-26T21:06:15.826Z,8.41
2022-12-26T21:09:19.747Z,8.40
2022-12-26T21:12:22.582Z,8.38
2022-12-26T21:15:25.403Z,8.38
2022-12-26T21:18:28.290Z,8.39
2022-12-26T21:21:33.657Z,8.38
2022-12-26T21:24:36.571Z,8.37
2022-12-26T21:27:42.873Z,8.38
2022-12-26T21:30:46.203Z,8.41
2022-12-26T21:33:49.063Z,8.42
2022-12-26T21:37:10.651Z,8.46
2022-12-26T21:40:13.541Z,8.48
2022-12-26T21:43:16.976Z,8.47
2022-12-26T21:46:20.689Z,8.45
2022-12-26T21:49:27.315Z,8.44
2022-12-26T21:52:30.926Z,8.44
2022-12-26T21:55:36.490Z,8.42
2022-12-26T21:58:59.450Z,8.41
2022-12-26T22:02:02.487Z,8.43
2022-12-26T22:05:05.775Z,8.45
2022-12-26T22:08:11.459Z,8.44
2022-12-26T22:11:35.980Z,8.37
2022-12-26T22:14:38.816Z,8.34
2022-12-26T22:17:41.636Z,8.35
2022-12-26T22:20:46.286Z,8.36
2022-12-26T22:23:54.449Z,8.34
2022-12-26T22:26:57.329Z,8.32
2022-12-26T22:30:00.254Z,8.33
2022-12-26T22:33:03.352Z,8.34
2022-12-26T22:36:08.222Z,8.37
2022-12-26T22:39:17.154Z,8.37
2022-12-26T22:42:19.991Z,8.35
2022-12-26T22:45:22.957Z,8.33
2022-12-26T22:48:25.902Z,8.35
2022-12-26T22:51:28.768Z,8.35
2022-12-26T22:54:31.894Z,8.36
2022-12-26T22:57:34.847Z,8.35
2022-12-26T23:00:37.759Z,8.35
2022-12-26T23:03:40.739Z,8.36
2022-12-26T23:06:43.925Z,8.36
2022-12-26T23:09:47.454Z,8.35
2022-12-26T23:12:51.334Z,8.36
2022-12-26T23:16:14.548Z,8.38
2022-12-26T23:20:02.193Z,8.40
2022-12-26T23:23:05.277Z,8.38
2022-12-26T23:26:08.211Z,8.37
2022-12-26T23:29:32.290Z,8.37
2022-12-26T23:32:36.424Z,8.39
2022-12-26T23:35:40.223Z,8.41
2022-12-26T23:38:43.172Z,8.41
2022-12-26T23:41:46.280Z,8.39
2022-12-26T23:44:49.152Z,8.42
2022-12-26T23:47:52.212Z,8.46
2022-12-26T23:51:06.761Z,8.47
2022-12-26T23:54:10.086Z,8.48
2022-12-26T23:57:13.211Z,8.49
